createdAt,value
2023-02-04T00:00:37.000Z,8.88
2023-02-04T00:01:34.000Z,8.88
2023-02-04T00:02:34.000Z,8.88
2023-02-04T00:03:34.000Z,8.88
2023-02-04T00:04:34.000Z,8.88
2023-02-04T00:05:34.000Z,8.88
2023-02-04T00:06:34.000Z,8.88
2023-02-04T00:07:34.000Z,8.88
2023-02-04T00:08:36.000Z,8.88
2023-02-04T00:09:34.000Z,8.88
2023-02-04T00:10:35.000Z,8.88
2023-02-04T00:11:34.000Z,8.88
2023-02-04T00:12:34.000Z,8.88
2023-02-04T00:13:34.000Z,8.88
2023-02-04T00:14:34.000Z,8.88
2023-02-04T00:15:34.000Z,8.88
2023-02-04T00:16:33.000Z,8.94
2023-02-04T00:17:34.000Z,8.94
2023-02-04T00:18:33.000Z,8.94
2023-02-04T00:19:34.000Z,9.00
2023-02-04T00:20:34.000Z,9.00
2023-02-04T00:21:34.000Z,9.06
2023-02-04T00:22:33.000Z,9.00
2023-02-04T00:23:34.000Z,9.06
2023-02-04T00:24:35.000Z,9.06
2023-02-04T00:25:33.000Z,9.06
2023-02-04T00:26:33.000Z,9.06
2023-02-04T00:27:34.000Z,9.06
2023-02-04T00:28:34.000Z,9.06
2023-02-04T00:29:34.000Z,9.12
2023-02-04T00:30:34.000Z,9.12
2023-02-04T00:31:34.000Z,9.12
2023-02-04T00:32:34.000Z,9.19
2023-02-04T00:33:34.000Z,9.19
2023-02-04T00:34:34.000Z,9.25
2023-02-04T00:35:35.000Z,9.19
2023-02-04T00:36:34.000Z,9.19
2023-02-04T00:37:33.000Z,9.19
2023-02-04T00:38:33.000Z,9.19
2023-02-04T00:39:34.000Z,9.19
2023-02-04T00:40:34.000Z,9.19
2023-02-04T00:41:34.000Z,9.12
2023-02-04T00:42:34.000Z,9.19
2023-02-04T00:43:34.000Z,9.19
2023-02-04T00:44:34.000Z,9.12
2023-02-04T00:45:34.000Z,9.19
2023-02-04T00:46:33.000Z,9.19
2023-02-04T00:47:33.000Z,9.19
2023-02-04T00:48:34.000Z,9.19
2023-02-04T00:49:33.000Z,9.19
2023-02-04T00:50:37.000Z,9.19
2023-02-04T00:51:35.000Z,9.25
2023-02-04T00:52:33.000Z,9.25
2023-02-04T00:53:34.000Z,9.25
2023-02-04T00:54:33.000Z,9.25
2023-02-04T00:55:34.000Z,9.25
2023-02-04T00:56:33.000Z,9.25
2023-02-04T00:57:34.000Z,9.25
2023-02-04T00:58:33.000Z,9.25
2023-02-04T00:59:34.000Z,9.25
2023-02-04T01:00:33.000Z,9.25
2023-02-04T01:01:34.000Z,9.19
2023-02-04T01:02:34.000Z,9.25
2023-02-04T01:03:34.000Z,9.19
2023-02-04T01:04:33.000Z,9.19
2023-02-04T01:05:34.000Z,9.25
2023-02-04T01:06:35.000Z,9.25
2023-02-04T01:07:34.000Z,9.19
2023-02-04T01:08:34.000Z,9.19
2023-02-04T01:09:33.000Z,9.19
2023-02-04T01:10:34.000Z,9.19
2023-02-04T01:11:34.000Z,9.19
2023-02-04T01:12:33.000Z,9.19
2023-02-04T01:13:33.000Z,9.25
2023-02-04T01:14:34.000Z,9.19
2023-02-04T01:15:33.000Z,9.19
2023-02-04T01:16:33.000Z,9.19
2023-02-04T01:17:33.000Z,9.19
2023-02-04T01:18:33.000Z,9.19
2023-02-04T01:19:33.000Z,9.19
2023-02-04T01:20:33.000Z,9.19
2023-02-04T01:21:34.000Z,9.25
2023-02-04T01:22:33.000Z,9.19
2023-02-04T01:23:35.000Z,9.19
2023-02-04T01:24:33.000Z,9.19
2023-02-04T01:25:33.000Z,9.19
2023-02-04T01:26:33.000Z,9.19
2023-02-04T01:27:34.000Z,9.19
2023-02-04T01:28:33.000Z,9.12
2023-02-04T01:29:33.000Z,9.19
2023-02-04T01:30:33.000Z,9.19
2023-02-04T01:31:33.000Z,9.12
2023-02-04T01:32:33.000Z,9.12
2023-02-04T01:33:33.000Z,9.12
2023-02-04T01:34:33.000Z,9.12
2023-02-04T01:35:34.000Z,9.12
2023-02-04T01:36:33.000Z,9.12
2023-02-04T01:37:33.000Z,9.06
2023-02-04T01:38:33.000Z,9.12
2023-02-04T01:39:35.000Z,9.06
2023-02-04T01:40:34.000Z,9.06
2023-02-04T01:41:34.000Z,9.06
2023-02-04T01:42:34.000Z,9.06
2023-02-04T01:43:33.000Z,9.06
2023-02-04T01:44:34.000Z,9.06
2023-02-04T01:45:34.000Z,9.06
2023-02-04T01:46:36.000Z,9.06
2023-02-04T01:47:35.000Z,9.00
2023-02-04T01:48:34.000Z,9.00
2023-02-04T01:49:34.000Z,9.00
2023-02-04T01:50:34.000Z,9.00
2023-02-04T01:51:35.000Z,8.94
2023-02-04T01:52:37.000Z,8.94
2023-02-04T01:53:35.000Z,8.94
2023-02-04T01:54:34.000Z,8.94
2023-02-04T01:55:34.000Z,8.94
2023-02-04T01:56:34.000Z,8.94
2023-02-04T01:57:35.000Z,8.94
2023-02-04T01:58:35.000Z,8.88
2023-02-04T01:59:34.000Z,8.88
2023-02-04T02:00:34.000Z,8.88
2023-02-04T02:01:44.000Z,8.88
2023-02-04T02:02:54.000Z,8.88
2023-02-04T02:03:34.000Z,8.88
2023-02-04T02:04:34.000Z,8.88
2023-02-04T02:05:48.000Z,8.81
2023-02-04T02:06:36.000Z,8.81
2023-02-04T02:07:34.000Z,8.81
2023-02-04T02:08:35.000Z,8.75
2023-02-04T02:09:34.000Z,8.81
2023-02-04T02:10:37.000Z,8.75
2023-02-04T02:11:34.000Z,8.81
2023-02-04T02:12:34.000Z,8.75
2023-02-04T02:13:34.000Z,8.75
2023-02-04T02:14:34.000Z,8.75
2023-02-04T02:15:34.000Z,8.69
2023-02-04T02:16:33.000Z,8.69
2023-02-04T02:17:34.000Z,8.75
2023-02-04T02:18:34.000Z,8.69
2023-02-04T02:19:36.000Z,8.62
2023-02-04T02:20:34.000Z,8.62
2023-02-04T02:21:43.000Z,8.62
2023-02-04T02:22:42.000Z,8.62
2023-02-04T02:23:44.000Z,8.62
2023-02-04T02:24:33.000Z,8.56
2023-02-04T02:25:34.000Z,8.56
2023-02-04T02:26:33.000Z,8.50
2023-02-04T02:27:33.000Z,8.56
2023-02-04T02:28:34.000Z,8.56
2023-02-04T02:29:40.000Z,8.50
2023-02-04T02:30:34.000Z,8.50
2023-02-04T02:31:33.000Z,8.50
2023-02-04T02:32:34.000Z,8.44
2023-02-04T02:33:34.000Z,8.44
2023-02-04T02:34:34.000Z,8.44
2023-02-04T02:35:34.000Z,8.38
2023-02-04T02:36:34.000Z,8.38
2023-02-04T02:37:34.000Z,8.38
2023-02-04T02:38:34.000Z,8.31
2023-02-04T02:39:36.000Z,8.31
2023-02-04T02:40:34.000Z,8.31
2023-02-04T02:41:33.000Z,8.31
2023-02-04T02:42:34.000Z,8.25
2023-02-04T02:43:35.000Z,8.25
2023-02-04T02:44:33.000Z,8.25
2023-02-04T02:45:33.000Z,8.25
2023-02-04T02:46:33.000Z,8.19
2023-02-04T02:47:33.000Z,8.12
2023-02-04T02:48:34.000Z,8.19
2023-02-04T02:49:35.000Z,8.12
2023-02-04T02:50:34.000Z,8.06
2023-02-04T02:51:34.000Z,8.06
2023-02-04T02:52:33.000Z,8.00
2023-02-04T02:53:34.000Z,8.00
2023-02-04T02:54:34.000Z,7.94
2023-02-04T02:55:34.000Z,7.94
2023-02-04T02:56:33.000Z,7.94
2023-02-04T02:57:33.000Z,7.88
2023-02-04T02:58:34.000Z,7.81
2023-02-04T02:59:33.000Z,7.81
2023-02-04T03:00:34.000Z,7.81
2023-02-04T03:01:33.000Z,7.75
2023-02-04T03:02:34.000Z,7.75
2023-02-04T03:03:54.000Z,7.69
2023-02-04T03:04:38.000Z,7.69
2023-02-04T03:05:41.000Z,7.69
2023-02-04T03:06:34.000Z,7.69
2023-02-04T03:07:34.000Z,7.69
2023-02-04T03:08:34.000Z,7.69
2023-02-04T03:09:34.000Z,7.69
2023-02-04T03:10:34.000Z,7.62
2023-02-04T03:11:34.000Z,7.62
2023-02-04T03:12:34.000Z,7.62
2023-02-04T03:13:35.000Z,7.62
2023-02-04T03:14:34.000Z,7.69
2023-02-04T03:15:34.000Z,7.62
2023-02-04T03:16:36.000Z,7.69
2023-02-04T03:17:35.000Z,7.69
2023-02-04T03:18:35.000Z,7.62
2023-02-04T03:19:37.000Z,7.62
2023-02-04T03:20:35.000Z,7.62
2023-02-04T03:21:35.000Z,7.62
2023-02-04T03:22:34.000Z,7.62
2023-02-04T03:23:35.000Z,7.56
2023-02-04T03:24:35.000Z,7.62
2023-02-04T03:25:34.000Z,7.62
2023-02-04T03:26:34.000Z,7.62
2023-02-04T03:27:34.000Z,7.62
2023-02-04T03:28:38.000Z,7.56
2023-02-04T03:29:41.000Z,7.56
2023-02-04T03:30:35.000Z,7.56
2023-02-04T03:31:35.000Z,7.56
2023-02-04T03:32:34.000Z,7.56
2023-02-04T03:33:35.000Z,7.50
2023-02-04T03:34:34.000Z,7.44
2023-02-04T03:35:34.000Z,7.44
2023-02-04T03:36:35.000Z,7.44
2023-02-04T03:37:34.000Z,7.44
2023-02-04T03:38:34.000Z,7.44
2023-02-04T03:39:34.000Z,7.38
2023-02-04T03:40:34.000Z,7.38
2023-02-04T03:41:34.000Z,7.38
2023-02-04T03:42:34.000Z,7.38
2023-02-04T03:43:34.000Z,7.38
2023-02-04T03:44:34.000Z,7.31
2023-02-04T03:45:34.000Z,7.38
2023-02-04T03:46:34.000Z,7.31
2023-02-04T03:47:34.000Z,7.31
2023-02-04T03:48:34.000Z,7.31
2023-02-04T03:49:34.000Z,7.31
2023-02-04T03:50:34.000Z,7.31
2023-02-04T03:51:34.000Z,7.31
2023-02-04T03:52:34.000Z,7.31
2023-02-04T03:53:34.000Z,7.31
2023-02-04T03:54:34.000Z,7.38
2023-02-04T03:55:34.000Z,7.38
2023-02-04T03:56:33.000Z,7.31
2023-02-04T03:57:34.000Z,7.31
2023-02-04T03:58:34.000Z,7.31
2023-02-04T03:59:34.000Z,7.31
2023-02-04T04:00:34.000Z,7.31
2023-02-04T04:01:34.000Z,7.25
2023-02-04T04:02:34.000Z,7.31
2023-02-04T04:03:34.000Z,7.25
2023-02-04T04:04:34.000Z,7.25
2023-02-04T04:05:34.000Z,7.25
2023-02-04T04:06:34.000Z,7.19
2023-02-04T04:07:34.000Z,7.25
2023-02-04T04:08:34.000Z,7.19
2023-02-04T04:09:33.000Z,7.25
2023-02-04T04:10:34.000Z,7.19
2023-02-04T04:11:34.000Z,7.19
2023-02-04T04:12:34.000Z,7.19
2023-02-04T04:13:34.000Z,7.19
2023-02-04T04:14:34.000Z,7.19
2023-02-04T04:15:34.000Z,7.12
2023-02-04T04:16:34.000Z,7.12
2023-02-04T04:17:33.000Z,7.12
2023-02-04T04:18:34.000Z,7.06
2023-02-04T04:19:33.000Z,7.12
2023-02-04T04:20:33.000Z,7.06
2023-02-04T04:21:33.000Z,7.06
2023-02-04T04:22:33.000Z,7.12
2023-02-04T04:23:33.000Z,7.06
2023-02-04T04:24:33.000Z,7.06
2023-02-04T04:25:33.000Z,7.12
2023-02-04T04:26:33.000Z,7.06
2023-02-04T04:27:33.000Z,7.12
2023-02-04T04:28:33.000Z,7.06
2023-02-04T04:29:33.000Z,7.12
2023-02-04T04:30:33.000Z,7.12
2023-02-04T04:31:33.000Z,7.12
2023-02-04T04:32:33.000Z,7.06
2023-02-04T04:33:33.000Z,7.06
2023-02-04T04:34:34.000Z,7.12
2023-02-04T04:35:33.000Z,7.06
2023-02-04T04:36:33.000Z,7.06
2023-02-04T04:37:33.000Z,7.06
2023-02-04T04:38:33.000Z,7.06
2023-02-04T04:39:33.000Z,7.06
2023-02-04T04:40:33.000Z,7.06
2023-02-04T04:41:33.000Z,7.06
2023-02-04T04:42:33.000Z,7.06
2023-02-04T04:43:33.000Z,7.06
2023-02-04T04:44:33.000Z,7.06
2023-02-04T04:45:33.000Z,7.06
2023-02-04T04:46:33.000Z,7.00
2023-02-04T04:47:33.000Z,7.06
2023-02-04T04:48:33.000Z,7.06
2023-02-04T04:49:33.000Z,7.06
2023-02-04T04:50:34.000Z,7.12
2023-02-04T04:51:34.000Z,7.06
2023-02-04T04:52:33.000Z,7.06
2023-02-04T04:53:34.000Z,7.06
2023-02-04T04:54:44.000Z,7.06
2023-02-04T04:55:33.000Z,7.00
2023-02-04T04:56:33.000Z,7.06
2023-02-04T04:57:34.000Z,7.06
2023-02-04T04:58:34.000Z,7.06
2023-02-04T04:59:34.000Z,7.06
2023-02-04T05:00:34.000Z,7.06
2023-02-04T05:01:34.000Z,7.00
2023-02-04T05:02:34.000Z,7.06
2023-02-04T05:03:34.000Z,7.06
2023-02-04T05:04:33.000Z,7.06
2023-02-04T05:05:38.000Z,7.06
2023-02-04T05:06:34.000Z,7.06
2023-02-04T05:07:34.000Z,7.06
2023-02-04T05:08:34.000Z,7.12
2023-02-04T05:09:33.000Z,7.06
2023-02-04T05:10:33.000Z,7.06
2023-02-04T05:11:34.000Z,7.06
2023-02-04T05:12:33.000Z,7.00
2023-02-04T05:13:34.000Z,7.06
2023-02-04T05:14:34.000Z,7.00
2023-02-04T05:15:34.000Z,7.00
2023-02-04T05:16:34.000Z,7.06
2023-02-04T05:17:34.000Z,7.06
2023-02-04T05:18:33.000Z,7.00
2023-02-04T05:19:33.000Z,7.06
2023-02-04T05:20:33.000Z,7.06
2023-02-04T05:21:33.000Z,7.06
2023-02-04T05:22:33.000Z,7.00
2023-02-04T05:23:34.000Z,7.00
2023-02-04T05:24:33.000Z,7.00
2023-02-04T05:25:33.000Z,7.06
2023-02-04T05:26:33.000Z,7.00
2023-02-04T05:27:33.000Z,7.06
2023-02-04T05:28:34.000Z,7.00
2023-02-04T05:29:33.000Z,7.00
2023-02-04T05:30:34.000Z,7.00
2023-02-04T05:31:34.000Z,7.00
2023-02-04T05:32:33.000Z,7.00
2023-02-04T05:33:33.000Z,7.00
2023-02-04T05:34:33.000Z,7.00
2023-02-04T05:35:33.000Z,6.94
2023-02-04T05:36:34.000Z,7.00
2023-02-04T05:37:33.000Z,7.00
2023-02-04T05:38:33.000Z,6.94
2023-02-04T05:39:33.000Z,6.94
2023-02-04T05:40:33.000Z,6.94
2023-02-04T05:41:33.000Z,6.94
2023-02-04T05:42:33.000Z,6.94
2023-02-04T05:43:33.000Z,6.94
2023-02-04T05:44:33.000Z,6.94
2023-02-04T05:45:33.000Z,6.94
2023-02-04T05:46:34.000Z,6.94
2023-02-04T05:47:34.000Z,6.94
2023-02-04T05:48:33.000Z,7.00
2023-02-04T05:49:34.000Z,6.94
2023-02-04T05:50:33.000Z,6.94
2023-02-04T05:51:34.000Z,6.94
2023-02-04T05:52:33.000Z,7.00
2023-02-04T05:53:33.000Z,6.94
2023-02-04T05:54:33.000Z,7.00
2023-02-04T05:55:34.000Z,6.94
2023-02-04T05:56:33.000Z,7.00
2023-02-04T05:57:33.000Z,7.00
2023-02-04T05:58:33.000Z,7.00
2023-02-04T05:59:34.000Z,7.00
2023-02-04T06:00:33.000Z,7.00
2023-02-04T06:01:33.000Z,7.00
2023-02-04T06:02:33.000Z,6.94
2023-02-04T06:03:34.000Z,6.88
2023-02-04T06:04:33.000Z,6.88
2023-02-04T06:05:33.000Z,6.94
2023-02-04T06:06:34.000Z,6.88
2023-02-04T06:07:34.000Z,6.88
2023-02-04T06:08:33.000Z,6.88
2023-02-04T06:09:33.000Z,6.88
2023-02-04T06:10:33.000Z,6.88
2023-02-04T06:11:33.000Z,6.88
2023-02-04T06:12:33.000Z,6.88
2023-02-04T06:13:33.000Z,6.81
2023-02-04T06:14:33.000Z,6.88
2023-02-04T06:15:33.000Z,6.88
2023-02-04T06:16:34.000Z,6.81
2023-02-04T06:17:33.000Z,6.88
2023-02-04T06:18:33.000Z,6.81
2023-02-04T06:19:34.000Z,6.88
2023-02-04T06:20:34.000Z,6.88
2023-02-04T06:21:34.000Z,6.88
2023-02-04T06:22:34.000Z,6.88
2023-02-04T06:23:34.000Z,6.88
2023-02-04T06:24:34.000Z,6.81
2023-02-04T06:25:34.000Z,6.88
2023-02-04T06:26:34.000Z,6.88
2023-02-04T06:27:34.000Z,6.88
2023-02-04T06:28:34.000Z,6.88
2023-02-04T06:29:34.000Z,6.88
2023-02-04T06:30:35.000Z,6.88
2023-02-04T06:31:36.000Z,6.88
2023-02-04T06:32:33.000Z,6.94
2023-02-04T06:33:35.000Z,6.94
2023-02-04T06:34:34.000Z,6.94
2023-02-04T06:35:34.000Z,6.94
2023-02-04T06:36:34.000Z,6.88
2023-02-04T06:37:34.000Z,6.94
2023-02-04T06:38:33.000Z,6.94
2023-02-04T06:39:34.000Z,6.94
2023-02-04T06:40:34.000Z,6.94
2023-02-04T06:41:34.000Z,6.88
2023-02-04T06:42:34.000Z,6.88
2023-02-04T06:43:34.000Z,6.88
2023-02-04T06:44:34.000Z,6.88
2023-02-04T06:45:34.000Z,6.88
2023-02-04T06:46:33.000Z,6.88
2023-02-04T06:47:34.000Z,6.88
2023-02-04T06:48:34.000Z,6.88
2023-02-04T06:49:33.000Z,6.88
2023-02-04T06:50:33.000Z,6.88
2023-02-04T06:51:34.000Z,6.88
2023-02-04T06:52:34.000Z,6.81
2023-02-04T06:53:33.000Z,6.81
2023-02-04T06:54:34.000Z,6.88
2023-02-04T06:55:33.000Z,6.81
2023-02-04T06:56:33.000Z,6.81
2023-02-04T06:57:33.000Z,6.81
2023-02-04T06:58:33.000Z,6.81
2023-02-04T06:59:35.000Z,6.81
2023-02-04T07:00:33.000Z,6.81
2023-02-04T07:01:34.000Z,6.75
2023-02-04T07:02:34.000Z,6.81
2023-02-04T07:03:33.000Z,6.81
2023-02-04T07:04:33.000Z,6.75
2023-02-04T07:05:34.000Z,6.81
2023-02-04T07:06:33.000Z,6.75
2023-02-04T07:07:33.000Z,6.75
2023-02-04T07:08:33.000Z,6.75
2023-02-04T07:09:34.000Z,6.75
2023-02-04T07:10:33.000Z,6.75
2023-02-04T07:11:33.000Z,6.81
2023-02-04T07:12:33.000Z,6.81
2023-02-04T07:13:33.000Z,6.75
2023-02-04T07:14:33.000Z,6.75
2023-02-04T07:15:34.000Z,6.75
2023-02-04T07:16:34.000Z,6.69
2023-02-04T07:17:33.000Z,6.75
2023-02-04T07:18:34.000Z,6.69
2023-02-04T07:19:34.000Z,6.75
2023-02-04T07:20:33.000Z,6.69
2023-02-04T07:21:33.000Z,6.69
2023-02-04T07:22:33.000Z,6.69
2023-02-04T07:23:33.000Z,6.69
2023-02-04T07:24:33.000Z,6.69
2023-02-04T07:25:33.000Z,6.69
2023-02-04T07:26:34.000Z,6.69
2023-02-04T07:27:34.000Z,6.69
2023-02-04T07:28:35.000Z,6.69
2023-02-04T07:29:33.000Z,6.75
2023-02-04T07:30:34.000Z,6.69
2023-02-04T07:31:33.000Z,6.69
2023-02-04T07:32:33.000Z,6.75
2023-02-04T07:33:34.000Z,6.69
2023-02-04T07:34:33.000Z,6.75
2023-02-04T07:35:33.000Z,6.75
2023-02-04T07:36:33.000Z,6.69
2023-02-04T07:37:33.000Z,6.75
2023-02-04T07:38:33.000Z,6.75
2023-02-04T07:39:33.000Z,6.75
2023-02-04T07:40:33.000Z,6.75
2023-02-04T07:41:34.000Z,6.69
2023-02-04T07:42:33.000Z,6.75
2023-02-04T07:43:33.000Z,6.81
2023-02-04T07:44:33.000Z,6.75
2023-02-04T07:45:33.000Z,6.75
2023-02-04T07:46:33.000Z,6.75
2023-02-04T07:47:33.000Z,6.81
2023-02-04T07:48:33.000Z,6.81
2023-02-04T07:49:33.000Z,6.75
2023-02-04T07:50:34.000Z,6.81
2023-02-04T07:51:34.000Z,6.75
2023-02-04T07:52:34.000Z,6.81
2023-02-04T07:53:33.000Z,6.81
2023-02-04T07:54:34.000Z,6.81
2023-02-04T07:55:34.000Z,6.81
2023-02-04T07:56:34.000Z,6.81
2023-02-04T07:57:34.000Z,6.81
2023-02-04T07:58:34.000Z,6.88
2023-02-04T07:59:34.000Z,6.81
2023-02-04T08:00:34.000Z,6.88
2023-02-04T08:01:34.000Z,6.88
2023-02-04T08:02:34.000Z,6.88
2023-02-04T08:03:34.000Z,6.94
2023-02-04T08:04:33.000Z,6.88
2023-02-04T08:05:34.000Z,6.94
2023-02-04T08:06:34.000Z,6.94
2023-02-04T08:07:34.000Z,6.94
2023-02-04T08:08:34.000Z,6.94
2023-02-04T08:09:34.000Z,7.00
2023-02-04T08:10:33.000Z,6.94
2023-02-04T08:11:34.000Z,6.94
2023-02-04T08:12:34.000Z,7.00
2023-02-04T08:13:34.000Z,7.00
2023-02-04T08:14:34.000Z,7.00
2023-02-04T08:15:34.000Z,7.00
2023-02-04T08:16:33.000Z,7.00
2023-02-04T08:17:34.000Z,7.06
2023-02-04T08:18:34.000Z,7.06
2023-02-04T08:19:34.000Z,7.06
2023-02-04T08:20:34.000Z,7.06
2023-02-04T08:21:35.000Z,7.06
2023-02-04T08:22:34.000Z,7.06
2023-02-04T08:23:34.000Z,7.06
2023-02-04T08:24:33.000Z,7.06
2023-02-04T08:25:34.000Z,7.06
2023-02-04T08:26:34.000Z,7.12
2023-02-04T08:27:34.000Z,7.06
2023-02-04T08:28:34.000Z,7.06
2023-02-04T08:29:34.000Z,7.12
2023-02-04T08:30:34.000Z,7.06
2023-02-04T08:31:36.000Z,7.06
2023-02-04T08:32:34.000Z,7.12
2023-02-04T08:33:33.000Z,7.12
2023-02-04T08:34:34.000Z,7.12
2023-02-04T08:35:34.000Z,7.12
2023-02-04T08:36:34.000Z,7.12
2023-02-04T08:37:34.000Z,7.19
2023-02-04T08:38:34.000Z,7.19
2023-02-04T08:39:33.000Z,7.19
2023-02-04T08:40:34.000Z,7.19
2023-02-04T08:41:34.000Z,7.19
2023-02-04T08:42:34.000Z,7.19
2023-02-04T08:43:34.000Z,7.19
2023-02-04T08:44:34.000Z,7.19
2023-02-04T08:45:38.000Z,7.19
2023-02-04T08:46:34.000Z,7.25
2023-02-04T08:47:34.000Z,7.19
2023-02-04T08:48:34.000Z,7.19
2023-02-04T08:49:34.000Z,7.25
2023-02-04T08:50:34.000Z,7.25
2023-02-04T08:51:34.000Z,7.25
2023-02-04T08:52:35.000Z,7.31
2023-02-04T08:53:34.000Z,7.31
2023-02-04T08:54:34.000Z,7.31
2023-02-04T08:55:34.000Z,7.31
2023-02-04T08:56:34.000Z,7.31
2023-02-04T08:57:34.000Z,7.31
2023-02-04T08:58:34.000Z,7.38
2023-02-04T08:59:34.000Z,7.38
2023-02-04T09:00:34.000Z,7.38
2023-02-04T09:01:34.000Z,7.38
2023-02-04T09:02:34.000Z,7.38
2023-02-04T09:03:34.000Z,7.38
2023-02-04T09:04:34.000Z,7.44
2023-02-04T09:05:34.000Z,7.44
2023-02-04T09:06:34.000Z,7.44
2023-02-04T09:07:34.000Z,7.44
2023-02-04T09:08:34.000Z,7.50
2023-02-04T09:09:34.000Z,7.50
2023-02-04T09:10:34.000Z,7.50
2023-02-04T09:11:34.000Z,7.50
2023-02-04T09:12:34.000Z,7.50
2023-02-04T09:13:34.000Z,7.50
2023-02-04T09:14:34.000Z,7.50
2023-02-04T09:15:34.000Z,7.50
2023-02-04T09:16:34.000Z,7.50
2023-02-04T09:17:34.000Z,7.50
2023-02-04T09:18:34.000Z,7.56
2023-02-04T09:19:34.000Z,7.50
2023-02-04T09:20:35.000Z,7.56
2023-02-04T09:21:34.000Z,7.56
2023-02-04T09:22:36.000Z,7.62
2023-02-04T09:23:34.000Z,7.62
2023-02-04T09:24:34.000Z,7.62
2023-02-04T09:25:34.000Z,7.56
2023-02-04T09:26:34.000Z,7.62
2023-02-04T09:27:34.000Z,7.69
2023-02-04T09:28:34.000Z,7.62
2023-02-04T09:29:34.000Z,7.69
2023-02-04T09:30:34.000Z,7.69
2023-02-04T09:31:34.000Z,7.62
2023-02-04T09:32:34.000Z,7.69
2023-02-04T09:33:34.000Z,7.69
2023-02-04T09:34:34.000Z,7.69
2023-02-04T09:35:34.000Z,7.69
2023-02-04T09:36:36.000Z,7.69
2023-02-04T09:37:34.000Z,7.75
2023-02-04T09:38:34.000Z,7.81
2023-02-04T09:39:34.000Z,7.81
2023-02-04T09:40:39.000Z,7.88
2023-02-04T09:41:38.000Z,7.94
2023-02-04T09:42:34.000Z,7.94
2023-02-04T09:43:39.000Z,8.00
2023-02-04T09:44:34.000Z,7.94
2023-02-04T09:45:35.000Z,7.94
2023-02-04T09:46:34.000Z,7.94
2023-02-04T09:47:35.000Z,7.94
2023-02-04T09:48:34.000Z,7.94
2023-02-04T09:49:34.000Z,8.00
2023-02-04T09:50:34.000Z,7.94
2023-02-04T09:51:34.000Z,8.00
2023-02-04T09:52:33.000Z,8.00
2023-02-04T09:53:34.000Z,8.00
2023-02-04T09:54:33.000Z,8.00
2023-02-04T09:55:36.000Z,8.00
2023-02-04T09:56:33.000Z,8.00
2023-02-04T09:57:33.000Z,8.00
2023-02-04T09:58:34.000Z,8.00
2023-02-04T09:59:33.000Z,8.00
2023-02-04T10:00:33.000Z,8.00
2023-02-04T10:01:34.000Z,8.06
2023-02-04T10:02:33.000Z,8.00
2023-02-04T10:03:33.000Z,8.06
2023-02-04T10:04:34.000Z,8.12
2023-02-04T10:05:35.000Z,8.12
2023-02-04T10:06:33.000Z,8.19
2023-02-04T10:07:33.000Z,8.19
2023-02-04T10:08:33.000Z,8.19
2023-02-04T10:09:33.000Z,8.19
2023-02-04T10:10:33.000Z,8.19
2023-02-04T10:11:36.000Z,8.19
2023-02-04T10:12:33.000Z,8.25
2023-02-04T10:13:37.000Z,8.25
2023-02-04T10:14:33.000Z,8.31
2023-02-04T10:15:33.000Z,8.31
2023-02-04T10:16:34.000Z,8.25
2023-02-04T10:17:35.000Z,8.25
2023-02-04T10:18:34.000Z,8.19
2023-02-04T10:19:33.000Z,8.12
2023-02-04T10:20:33.000Z,8.12
2023-02-04T10:21:35.000Z,8.12
2023-02-04T10:22:35.000Z,8.19
2023-02-04T10:23:34.000Z,8.19
2023-02-04T10:24:34.000Z,8.19
2023-02-04T10:25:34.000Z,8.19
2023-02-04T10:26:34.000Z,8.25
2023-02-04T10:27:34.000Z,8.25
2023-02-04T10:28:35.000Z,8.31
2023-02-04T10:29:34.000Z,8.31
2023-02-04T10:30:40.000Z,8.31
2023-02-04T10:31:38.000Z,8.31
2023-02-04T10:32:34.000Z,8.25
2023-02-04T10:33:36.000Z,8.25
2023-02-04T10:34:38.000Z,8.31
2023-02-04T10:35:46.000Z,8.25
2023-02-04T10:36:34.000Z,8.19
2023-02-04T10:37:34.000Z,8.19
2023-02-04T10:38:34.000Z,8.19
2023-02-04T10:39:41.000Z,8.19
2023-02-04T10:40:35.000Z,8.19
2023-02-04T10:41:44.000Z,8.12
2023-02-04T10:42:34.000Z,8.12
2023-02-04T10:43:34.000Z,8.12
2023-02-04T10:44:46.000Z,8.19
2023-02-04T10:45:34.000Z,8.19
2023-02-04T10:46:34.000Z,8.12
2023-02-04T10:47:35.000Z,8.19
2023-02-04T10:48:40.000Z,8.19
2023-02-04T10:49:34.000Z,8.19
2023-02-04T10:50:34.000Z,8.19
2023-02-04T10:51:34.000Z,8.19
2023-02-04T10:52:40.000Z,8.19
2023-02-04T10:53:39.000Z,8.19
2023-02-04T10:54:36.000Z,8.19
2023-02-04T10:55:33.000Z,8.25
2023-02-04T10:56:33.000Z,8.25
2023-02-04T10:57:38.000Z,8.31
2023-02-04T10:58:33.000Z,8.31
2023-02-04T10:59:35.000Z,8.38
2023-02-04T11:00:33.000Z,8.38
2023-02-04T11:01:33.000Z,8.31
2023-02-04T11:02:49.000Z,8.44
2023-02-04T11:03:36.000Z,8.50
2023-02-04T11:04:34.000Z,8.56
2023-02-04T11:05:34.000Z,8.69
2023-02-04T11:06:33.000Z,8.75
2023-02-04T11:07:33.000Z,8.81
2023-02-04T11:08:35.000Z,8.88
2023-02-04T11:09:33.000Z,8.94
2023-02-04T11:10:34.000Z,9.00
2023-02-04T11:11:34.000Z,9.06
2023-02-04T11:12:40.000Z,9.06
2023-02-04T11:13:43.000Z,9.19
2023-02-04T11:14:33.000Z,9.25
2023-02-04T11:15:41.000Z,9.19
2023-02-04T11:16:46.000Z,9.25
2023-02-04T11:17:34.000Z,9.19
2023-02-04T11:18:43.000Z,9.12
2023-02-04T11:19:37.000Z,9.06
2023-02-04T11:20:36.000Z,9.00
2023-02-04T11:21:44.000Z,9.00
2023-02-04T11:22:42.000Z,9.00
2023-02-04T11:23:34.000Z,8.94
2023-02-04T11:24:33.000Z,8.94
2023-02-04T11:25:34.000Z,8.94
2023-02-04T11:26:39.000Z,8.81
2023-02-04T11:27:38.000Z,8.81
2023-02-04T11:28:48.000Z,8.75
2023-02-04T11:29:36.000Z,8.81
2023-02-04T11:30:33.000Z,8.75
2023-02-04T11:32:03.000Z,8.75
2023-02-04T11:32:36.000Z,8.69
2023-02-04T11:33:39.000Z,8.75
2023-02-04T11:34:45.000Z,8.75
2023-02-04T11:35:33.000Z,8.69
2023-02-04T11:36:34.000Z,8.75
2023-02-04T11:37:39.000Z,8.69
2023-02-04T11:38:33.000Z,8.69
2023-02-04T11:39:39.000Z,8.69
2023-02-04T11:40:35.000Z,8.69
2023-02-04T11:41:33.000Z,8.62
2023-02-04T11:42:41.000Z,8.56
2023-02-04T11:43:34.000Z,8.56
2023-02-04T11:44:33.000Z,8.56
2023-02-04T11:45:35.000Z,8.56
2023-02-04T11:46:33.000Z,8.56
2023-02-04T11:47:34.000Z,8.56
2023-02-04T11:48:34.000Z,8.56
2023-02-04T11:49:34.000Z,8.56
2023-02-04T11:50:34.000Z,8.56
2023-02-04T11:51:33.000Z,8.56
2023-02-04T11:52:34.000Z,8.56
2023-02-04T11:53:33.000Z,8.56
2023-02-04T11:54:34.000Z,8.50
2023-02-04T11:55:41.000Z,8.50
2023-02-04T11:56:33.000Z,8.50
2023-02-04T11:57:38.000Z,8.56
2023-02-04T11:58:37.000Z,8.62
2023-02-04T11:59:33.000Z,8.69
2023-02-04T12:00:33.000Z,8.81
2023-02-04T12:01:33.000Z,8.88
2023-02-04T12:02:46.000Z,8.94
2023-02-04T12:03:44.000Z,9.00
2023-02-04T12:04:33.000Z,9.12
2023-02-04T12:05:40.000Z,9.12
2023-02-04T12:06:35.000Z,9.19
2023-02-04T12:07:34.000Z,9.25
2023-02-04T12:08:35.000Z,9.31
2023-02-04T12:09:33.000Z,9.31
2023-02-04T12:10:33.000Z,9.38
2023-02-04T12:11:34.000Z,9.44
2023-02-04T12:12:42.000Z,9.44
2023-02-04T12:13:48.000Z,9.44
2023-02-04T12:14:35.000Z,9.56
2023-02-04T12:15:37.000Z,9.62
2023-02-04T12:16:39.000Z,9.62
2023-02-04T12:17:34.000Z,9.75
2023-02-04T12:18:34.000Z,9.81
2023-02-04T12:19:34.000Z,9.81
2023-02-04T12:20:35.000Z,9.81
2023-02-04T12:21:33.000Z,9.75
2023-02-04T12:22:33.000Z,9.69
2023-02-04T12:23:33.000Z,9.56
2023-02-04T12:24:34.000Z,9.50
2023-02-04T12:25:33.000Z,9.38
2023-02-04T12:26:34.000Z,9.38
2023-02-04T12:27:33.000Z,9.31
2023-02-04T12:28:33.000Z,9.38
2023-02-04T12:29:33.000Z,9.31
2023-02-04T12:30:34.000Z,9.25
2023-02-04T12:31:34.000Z,9.25
2023-02-04T12:32:33.000Z,9.25
2023-02-04T12:33:33.000Z,9.12
2023-02-04T12:34:33.000Z,9.12
2023-02-04T12:35:34.000Z,9.12
2023-02-04T12:36:33.000Z,9.06
2023-02-04T12:37:33.000Z,9.06
2023-02-04T12:38:33.000Z,9.06
2023-02-04T12:39:33.000Z,9.00
2023-02-04T12:40:34.000Z,8.94
2023-02-04T12:41:33.000Z,8.88
2023-02-04T12:42:33.000Z,8.88
2023-02-04T12:43:33.000Z,8.88
2023-02-04T12:44:34.000Z,8.88
2023-02-04T12:45:33.000Z,8.88
2023-02-04T12:46:33.000Z,8.81
2023-02-04T12:47:33.000Z,8.81
2023-02-04T12:48:33.000Z,8.81
2023-02-04T12:49:33.000Z,8.81
2023-02-04T12:50:33.000Z,8.81
2023-02-04T12:51:33.000Z,8.81
2023-02-04T12:52:33.000Z,8.81
2023-02-04T12:53:33.000Z,8.88
2023-02-04T12:54:34.000Z,8.94
2023-02-04T12:55:33.000Z,9.00
2023-02-04T12:56:33.000Z,9.12
2023-02-04T12:57:33.000Z,9.19
2023-02-04T12:58:33.000Z,9.25
2023-02-04T12:59:33.000Z,9.38
2023-02-04T13:00:33.000Z,9.50
2023-02-04T13:01:33.000Z,9.50
2023-02-04T13:02:33.000Z,9.50
2023-02-04T13:03:33.000Z,9.50
2023-02-04T13:04:34.000Z,9.56
2023-02-04T13:05:34.000Z,9.69
2023-02-04T13:06:33.000Z,9.75
2023-02-04T13:07:33.000Z,9.88
2023-02-04T13:08:33.000Z,9.94
2023-02-04T13:09:34.000Z,10.00
2023-02-04T13:10:33.000Z,10.06
2023-02-04T13:11:33.000Z,10.06
2023-02-04T13:12:33.000Z,10.06
2023-02-04T13:13:33.000Z,10.06
2023-02-04T13:14:33.000Z,10.12
2023-02-04T13:15:33.000Z,10.12
2023-02-04T13:16:33.000Z,10.19
2023-02-04T13:17:33.000Z,10.19
2023-02-04T13:18:33.000Z,10.25